Time;durP1;ratioP1;P1;durP2;ratioP2;P2;SDS_P1;SDS_P2;PMS_P1;PMS_P2;Temp;Humidity;BMP_temperature;BMP_pressure;BME280_temperature;BME280_humidity;BME280_pressure;Samples;Min_cycle;Max_cycle;Signal;HPM_P1;HPM_P2
2021/04/18 00:00:54;;;;;;;7.80;5.20;;;;;;;9.58;55.65;96793.28;5026928;28;20626;-72
2021/04/18 00:03:20;;;;;;;14.77;7.30;;;;;;;9.68;56.32;96808.47;5027705;28;20033;-73
2021/04/18 00:05:45;;;;;;;24.15;12.88;;;;;;;9.59;56.56;96822.56;5025607;28;20052;-71
2021/04/18 00:08:11;;;;;;;13.15;5.65;;;;;;;9.59;54.35;96808.72;5027474;28;20049;-72
2021/04/18 00:10:39;;;;;;;7.22;4.90;;;;;;;9.65;53.64;96798.94;5026932;28;20409;-72
2021/04/18 00:13:06;;;;;;;6.88;4.32;;;;;;;9.56;54.09;96806.69;5027273;28;20029;-73
2021/04/18 00:15:32;;;;;;;9.05;4.45;;;;;;;9.08;54.78;96741.91;5026428;28;20041;-72
2021/04/18 00:17:58;;;;;;;8.18;5.22;;;;;;;9.51;55.18;96804.25;5027080;28;20515;-71
2021/04/18 00:20:23;;;;;;;7.60;5.03;;;;;;;9.55;55.47;96805.09;5026968;28;20034;-71
2021/04/18 00:22:49;;;;;;;7.25;4.47;;;;;;;9.37;55.38;96792.94;5027695;28;20025;-72
2021/04/18 00:25:17;;;;;;;7.38;4.78;;;;;;;9.60;55.12;96812.28;5026850;28;20792;-76
2021/04/18 00:27:44;;;;;;;8.07;4.55;;;;;;;9.58;55.78;96804.34;5026980;28;20033;-75
2021/04/18 00:30:12;;;;;;;8.43;4.85;;;;;;;9.30;55.22;96775.41;5026978;28;20147;-73
2021/04/18 00:32:38;;;;;;;7.35;4.93;;;;;;;9.46;55.88;96807.31;5027107;28;20634;-76
2021/04/18 00:35:06;;;;;;;18.88;10.10;;;;;;;9.47;58.17;96800.59;5026840;28;20497;-76
2021/04/18 00:37:31;;;;;;;13.68;6.75;;;;;;;9.54;58.54;96797.97;5025012;28;20419;-76
2021/04/18 00:39:57;;;;;;;13.20;7.05;;;;;;;9.52;58.77;96797.53;5027159;28;20033;-76
2021/04/18 00:42:22;;;;;;;7.32;4.72;;;;;;;9.35;59.30;96811.84;5041479;28;20028;-76
2021/04/18 00:44:48;;;;;;;8.10;4.93;;;;;;;9.46;59.54;96795.44;5024681;28;20053;-77
2021/04/18 00:47:16;;;;;;;8.88;4.18;;;;;;;8.94;58.28;96713.22;5026193;28;20040;-77
2021/04/18 00:49:43;;;;;;;8.13;3.70;;;;;;;7.19;57.35;96452.13;5026790;28;20025;-76
2021/04/18 00:52:09;;;;;;;5.45;3.67;;;;;;;9.17;56.35;96788.63;5024389;28;20076;-76
2021/04/18 00:54:34;;;;;;;11.00;4.40;;;;;;;9.23;56.60;96792.69;5025085;28;20061;-77
2021/04/18 00:57:00;;;;;;;11.00;3.92;;;;;;;9.21;56.13;96789.50;5026438;28;20042;-77
2021/04/18 00:59:25;;;;;;;7.32;3.67;;;;;;;8.82;56.20;96793.50;5026541;28;20033;-75
2021/04/18 01:01:51;;;;;;;6.65;3.38;;;;;;;8.99;55.98;96776.47;5023818;28;20041;-76
2021/04/18 01:04:16;;;;;;;5.55;3.60;;;;;;;8.71;55.86;96726.22;5024693;28;20041;-77
2021/04/18 01:06:41;;;;;;;9.30;3.42;;;;;;;9.13;56.09;96782.25;5026098;28;20491;-74
2021/04/18 01:09:07;;;;;;;13.02;4.40;;;;;;;8.30;56.17;96672.56;5024789;28;20037;-76
2021/04/18 01:11:33;;;;;;;8.80;3.90;;;;;;;8.76;56.73;96734.19;5026045;28;20033;-77
2021/04/18 01:13:58;;;;;;;7.05;3.33;;;;;;;8.69;56.45;96707.22;5026632;28;20524;-78
2021/04/18 01:16:23;;;;;;;10.77;3.53;;;;;;;9.25;57.08;96787.56;5025760;28;20029;-77
2021/04/18 01:18:49;;;;;;;8.15;3.20;;;;;;;9.26;55.62;96785.63;5026077;28;20087;-77
2021/04/18 01:21:14;;;;;;;8.93;3.30;;;;;;;8.97;55.32;96745.63;5025592;28;20485;-72
2021/04/18 01:23:43;;;;;;;6.25;3.60;;;;;;;9.11;53.89;96762.47;5024266;28;20519;-74
2021/04/18 01:26:09;;;;;;;5.22;3.70;;;;;;;9.05;54.28;96741.81;5024890;28;20030;-73
2021/04/18 01:28:35;;;;;;;7.43;4.18;;;;;;;9.36;54.61;96796.84;5024531;28;20048;-69
2021/04/18 01:31:03;;;;;;;5.03;3.10;;;;;;;9.32;53.80;96801.53;5023985;28;20048;-73
2021/04/18 01:33:28;;;;;;;6.68;3.30;;;;;;;9.33;54.24;96803.13;5024140;28;20041;-72
2021/04/18 01:35:54;;;;;;;7.13;3.17;;;;;;;9.30;53.91;96814.09;5025277;28;20172;-73
2021/04/18 01:38:20;;;;;;;5.47;4.10;;;;;;;9.33;54.09;96791.25;5024119;28;20076;-77
2021/04/18 01:40:45;;;;;;;10.45;6.03;;;;;;;9.37;53.50;96787.41;5025076;28;20554;-73
2021/04/18 01:43:13;;;;;;;8.80;4.70;;;;;;;9.01;54.16;96724.38;5023834;28;20029;-75
2021/04/18 01:45:39;;;;;;;5.00;3.45;;;;;;;9.44;53.77;96784.75;5023633;28;20136;-73
2021/04/18 01:48:05;;;;;;;4.32;3.55;;;;;;;9.45;53.45;96800.19;5024175;28;20159;-76
2021/04/18 01:50:32;;;;;;;4.43;3.03;;;;;;;8.78;53.29;96726.34;5024938;28;20493;-76
2021/04/18 01:52:58;;;;;;;5.63;4.03;;;;;;;9.34;53.41;96799.22;5025462;28;20029;-75
2021/04/18 01:55:23;;;;;;;4.72;3.13;;;;;;;9.28;54.71;96795.13;5023269;28;20033;-74
2021/04/18 01:57:49;;;;;;;4.47;3.80;;;;;;;9.19;53.89;96780.75;5025166;28;20029;-76
2021/04/18 02:00:16;;;;;;;5.75;3.45;;;;;;;8.99;53.67;96748.84;5023214;28;20045;-75
2021/04/18 02:02:42;;;;;;;6.13;3.13;;;;;;;7.90;53.73;96572.06;5025068;28;20022;-76
2021/04/18 02:05:08;;;;;;;3.95;3.25;;;;;;;9.32;53.94;96795.19;5024735;28;20064;-75
2021/04/18 02:07:34;;;;;;;4.65;3.33;;;;;;;6.63;53.39;96376.66;5025841;28;20025;-76
2021/04/18 02:09:59;;;;;;;10.10;3.47;;;;;;;9.26;54.05;96791.97;5025175;28;20040;-71
2021/04/18 02:12:25;;;;;;;6.85;3.25;;;;;;;9.30;53.30;96798.34;5024744;28;20556;-74
2021/04/18 02:14:50;;;;;;;3.45;2.95;;;;;;;9.01;52.80;96768.56;5022674;28;20038;-75
2021/04/18 02:17:15;;;;;;;4.00;2.95;;;;;;;9.12;53.36;96802.72;5024518;28;20021;-73
2021/04/18 02:19:41;;;;;;;6.43;3.55;;;;;;;8.81;53.80;96739.41;5025065;28;20032;-73
2021/04/18 02:22:07;;;;;;;5.05;3.38;;;;;;;9.03;53.21;96755.19;5023157;28;20124;-73
2021/04/18 02:24:32;;;;;;;5.05;3.33;;;;;;;8.89;53.48;96735.63;5025231;28;20044;-76
2021/04/18 02:26:57;;;;;;;9.07;3.85;;;;;;;9.23;56.00;96782.41;5024567;28;20038;-75
2021/04/18 02:29:23;;;;;;;5.88;3.53;;;;;;;9.18;57.77;96784.69;5025032;28;20037;-71
2021/04/18 02:31:48;;;;;;;6.55;3.90;;;;;;;9.08;57.34;96791.63;5024349;28;20566;-71
2021/04/18 02:34:14;;;;;;;6.90;4.10;;;;;;;9.00;57.85;96767.00;5024541;28;20580;-72
2021/04/18 02:36:39;;;;;;;7.35;4.18;;;;;;;8.57;57.19;96698.31;5024247;28;20069;-72
2021/04/18 02:39:06;;;;;;;6.22;4.35;;;;;;;8.73;57.10;96718.34;5024579;28;20030;-72
2021/04/18 02:41:33;;;;;;;10.80;4.50;;;;;;;9.13;56.87;96788.56;5024167;28;20540;-73
2021/04/18 02:43:58;;;;;;;5.93;3.47;;;;;;;8.29;56.17;96645.34;5024031;28;20056;-71
2021/04/18 02:46:24;;;;;;;6.00;3.92;;;;;;;9.19;56.79;96783.53;5022149;28;20037;-70
2021/04/18 02:48:49;;;;;;;11.70;5.28;;;;;;;9.24;56.83;96788.75;5024155;28;20554;-70
2021/04/18 02:51:15;;;;;;;95.32;41.55;;;;;;;9.17;57.78;96783.09;5008325;28;20574;-72
2021/04/18 02:53:40;;;;;;;119.65;44.05;;;;;;;9.14;57.99;96783.81;5002932;28;20090;-71
2021/04/18 02:56:06;;;;;;;111.03;41.95;;;;;;;9.16;59.01;96787.03;5004133;28;20034;-71
2021/04/18 02:58:31;;;;;;;94.35;34.75;;;;;;;9.11;59.15;96773.50;5004878;28;20030;-72
2021/04/18 03:00:57;;;;;;;22.00;10.35;;;;;;;8.84;59.27;96730.38;5004398;28;20389;-71
2021/04/18 03:03:22;;;;;;;17.50;9.15;;;;;;;9.11;59.74;96790.09;5004453;28;20033;-69
2021/04/18 03:05:48;;;;;;;16.83;9.35;;;;;;;9.15;59.58;96793.72;5003753;28;20560;-71
2021/04/18 03:08:13;;;;;;;14.55;8.15;;;;;;;9.27;58.98;96788.00;5004333;28;20088;-71
2021/04/18 03:10:39;;;;;;;16.38;9.90;;;;;;;9.30;58.99;96798.34;5003690;28;20657;-72
2021/04/18 03:13:04;;;;;;;13.57;6.10;;;;;;;8.67;59.65;96750.19;5004165;28;20555;-72
2021/04/18 03:15:30;;;;;;;7.72;4.40;;;;;;;8.92;59.20;96779.06;5004006;28;20034;-74
2021/04/18 03:17:56;;;;;;;9.73;4.32;;;;;;;8.66;59.14;96734.78;5002644;28;20443;-73
2021/04/18 03:20:22;;;;;;;8.90;4.07;;;;;;;9.13;57.50;96794.09;5003481;28;20030;-73
2021/04/18 03:22:47;;;;;;;8.73;4.20;;;;;;;9.15;57.07;96796.50;5018823;28;20037;-75
2021/04/18 03:25:13;;;;;;;8.90;4.03;;;;;;;9.17;56.62;96802.44;5003351;28;20550;-75
2021/04/18 03:27:39;;;;;;;5.32;3.63;;;;;;;9.13;56.70;96793.28;5003795;28;20069;-75
2021/04/18 03:30:07;;;;;;;6.40;3.63;;;;;;;8.92;58.46;96793.69;5003706;28;20037;-75
2021/04/18 03:32:33;;;;;;;6.47;4.32;;;;;;;9.01;59.33;96815.53;5004336;28;20033;-77
2021/04/18 03:34:58;;;;;;;6.65;4.20;;;;;;;8.91;59.38;96785.78;5003981;28;20632;-73
2021/04/18 03:37:24;;;;;;;7.28;3.50;;;;;;;8.61;58.31;96735.09;5003571;28;20033;-73
2021/04/18 03:39:50;;;;;;;9.07;4.40;;;;;;;9.20;58.38;96809.97;5003803;28;20109;-70
2021/04/18 03:42:15;;;;;;;7.32;4.55;;;;;;;9.17;59.35;96794.13;5001562;28;20509;-73
2021/04/18 03:44:41;;;;;;;18.13;6.57;;;;;;;8.70;58.41;96749.44;5003734;28;20061;-74
2021/04/18 03:47:06;;;;;;;10.50;6.25;;;;;;;9.14;58.99;96808.69;5003661;28;20034;-74
2021/04/18 03:49:32;;;;;;;10.60;5.80;;;;;;;9.11;58.71;96795.59;5019621;28;20045;-72
2021/04/18 03:51:57;;;;;;;14.90;6.20;;;;;;;9.06;59.17;96804.19;5023083;28;20045;-73
2021/04/18 03:54:23;;;;;;;9.65;5.97;;;;;;;9.09;59.03;96800.69;5022631;28;20631;-71
2021/04/18 03:56:50;;;;;;;13.73;6.03;;;;;;;9.14;59.11;96801.22;5023541;28;20556;-73
2021/04/18 03:59:15;;;;;;;10.48;5.85;;;;;;;9.21;59.25;96806.06;5022311;28;20041;-73
2021/04/18 04:01:41;;;;;;;11.35;5.40;;;;;;;9.15;58.77;96785.44;5023359;28;20543;-73
2021/04/18 04:04:06;;;;;;;9.95;5.40;;;;;;;9.02;59.07;96775.72;5023475;28;20037;-74
2021/04/18 04:06:32;;;;;;;10.25;6.53;;;;;;;9.17;57.99;96816.25;5021431;28;20401;-72
2021/04/18 04:08:57;;;;;;;13.18;6.07;;;;;;;9.11;57.87;96785.38;5023784;28;20021;-75
2021/04/18 04:11:23;;;;;;;10.70;6.32;;;;;;;8.55;56.74;96690.41;5023596;28;20026;-75
2021/04/18 04:13:48;;;;;;;8.75;5.22;;;;;;;9.30;56.48;96798.34;5023327;28;20394;-71
2021/04/18 04:16:14;;;;;;;6.70;4.18;;;;;;;9.27;57.47;96803.78;5022966;28;20554;-75
2021/04/18 04:18:39;;;;;;;24.35;7.85;;;;;;;8.76;57.51;96754.31;5022256;28;20034;-74
2021/04/18 04:21:05;;;;;;;14.93;6.18;;;;;;;8.84;56.19;96804.94;5022146;28;20115;-72
2021/04/18 04:23:30;;;;;;;10.80;4.93;;;;;;;8.68;56.33;96721.41;5021569;28;20509;-74
2021/04/18 04:25:56;;;;;;;8.68;4.38;;;;;;;8.90;58.68;96800.72;5022693;28;20420;-74
2021/04/18 04:28:22;;;;;;;13.48;5.38;;;;;;;9.03;59.13;96777.31;5023473;28;20034;-73
2021/04/18 04:30:48;;;;;;;17.45;10.02;;;;;;;9.35;61.94;96788.94;5021382;28;20128;-76
2021/04/18 04:33:13;;;;;;;21.58;15.18;;;;;;;9.44;65.39;96787.53;5022001;28;20175;-73
2021/04/18 04:35:40;;;;;;;20.23;13.32;;;;;;;8.94;64.86;96697.44;5022635;28;20561;-76
2021/04/18 04:38:06;;;;;;;13.82;6.70;;;;;;;9.28;61.03;96772.25;5025382;28;20076;-75
2021/04/18 04:40:31;;;;;;;10.73;5.13;;;;;;;9.50;59.38;96774.97;5024699;28;20074;-77
2021/04/18 04:43:00;;;;;;;9.27;4.55;;;;;;;9.64;59.53;96769.69;5027089;28;20037;-74
2021/04/18 04:45:26;;;;;;;17.73;8.43;;;;;;;9.70;59.74;96770.97;5025937;28;20499;-75
2021/04/18 04:47:51;;;;;;;8.43;4.85;;;;;;;9.72;59.01;96771.38;5027154;28;20040;-75
2021/04/18 04:50:17;;;;;;;33.83;19.10;;;;;;;9.58;58.68;96724.16;5019369;28;20493;-76
2021/04/18 04:52:42;;;;;;;7.72;4.82;;;;;;;9.28;58.86;96665.22;5006981;28;20036;-75
2021/04/18 04:55:08;;;;;;;16.90;10.82;;;;;;;9.74;58.65;96733.09;5021263;28;20033;-76
2021/04/18 04:57:33;;;;;;;18.20;10.93;;;;;;;9.57;59.40;96708.75;5006536;28;20065;-74
2021/04/18 04:59:59;;;;;;;13.63;7.63;;;;;;;9.93;59.48;96749.59;5004890;28;20091;-76
2021/04/18 05:02:24;;;;;;;9.32;6.20;;;;;;;10.11;59.12;96750.69;5021162;28;20560;-76
2021/04/18 05:04:50;;;;;;;6.07;5.00;;;;;;;9.68;57.37;96708.91;4988700;28;20518;-75
2021/04/18 05:07:15;;;;;;;9.63;7.50;;;;;;;10.22;57.66;96746.09;5006281;28;20040;-77
2021/04/18 05:09:41;;;;;;;12.60;8.05;;;;;;;10.26;57.47;96743.34;5007233;28;20030;-76
2021/04/18 05:12:08;;;;;;;10.40;8.30;;;;;;;10.33;57.33;96746.22;5006527;28;20108;-73
2021/04/18 05:14:33;;;;;;;11.85;6.75;;;;;;;10.56;56.37;96750.47;5007008;28;20053;-72
2021/04/18 05:16:59;;;;;;;11.98;7.15;;;;;;;10.62;55.58;96754.50;5006596;28;20405;-75
2021/04/18 05:19:25;;;;;;;10.82;6.95;;;;;;;10.55;53.45;96715.66;5022254;28;20045;-73
2021/04/18 05:21:50;;;;;;;11.70;6.80;;;;;;;10.88;52.83;96750.84;5006632;28;20425;-75
2021/04/18 05:24:16;;;;;;;16.70;9.73;;;;;;;11.05;51.23;96746.69;5021363;28;20041;-75
2021/04/18 05:26:41;;;;;;;28.02;13.50;;;;;;;11.10;51.33;96749.06;5004774;28;20056;-74
2021/04/18 05:29:07;;;;;;;23.67;11.98;;;;;;;10.99;50.65;96750.94;5005451;28;20036;-73
2021/04/18 05:31:32;;;;;;;14.77;9.30;;;;;;;10.99;49.70;96748.16;5004321;28;20037;-71
2021/04/18 05:33:58;;;;;;;17.40;11.27;;;;;;;10.52;48.70;96661.03;5004790;28;20036;-72
2021/04/18 05:36:23;;;;;;;18.58;11.98;;;;;;;10.56;49.25;96684.00;5005525;28;20080;-72
2021/04/18 05:38:49;;;;;;;19.95;12.77;;;;;;;11.10;49.09;96754.63;5005806;28;20026;-71
2021/04/18 05:41:14;;;;;;;11.15;7.53;;;;;;;11.12;47.97;96755.06;5003496;28;20497;-71
2021/04/18 05:43:40;;;;;;;7.03;4.85;;;;;;;11.16;47.92;96753.13;5021003;28;20096;-71
2021/04/18 05:46:06;;;;;;;9.60;5.55;;;;;;;11.17;47.40;96738.06;5020201;28;20049;-73
2021/04/18 05:48:32;;;;;;;8.10;6.38;;;;;;;10.93;46.55;96730.31;5004119;28;20041;-77
2021/04/18 05:50:57;;;;;;;11.18;6.28;;;;;;;11.04;46.51;96732.00;5017336;28;20034;-75
2021/04/18 05:53:23;;;;;;;11.13;6.55;;;;;;;10.99;46.79;96684.44;5023499;28;20033;-71
2021/04/18 05:55:48;;;;;;;13.63;7.40;;;;;;;8.41;45.71;96303.78;5023238;28;20440;-73
2021/04/18 05:58:15;;;;;;;7.85;6.05;;;;;;;11.33;45.39;96738.63;5025148;28;20444;-76
2021/04/18 06:00:41;;;;;;;5.88;4.45;;;;;;;11.24;45.43;96735.38;5023367;28;20067;-73
2021/04/18 06:03:06;;;;;;;6.57;3.50;;;;;;;11.39;45.63;96742.63;5025370;28;20165;-74
2021/04/18 06:05:32;;;;;;;5.25;3.35;;;;;;;11.51;45.17;96739.56;5022379;28;20071;-73
2021/04/18 06:07:57;;;;;;;5.13;3.92;;;;;;;11.52;45.46;96735.63;5025299;28;20043;-74
2021/04/18 06:10:23;;;;;;;6.60;4.40;;;;;;;11.17;45.58;96696.50;5024532;28;20122;-74
2021/04/18 06:12:48;;;;;;;11.15;8.00;;;;;;;11.05;46.04;96688.47;5024740;28;20040;-74
2021/04/18 06:15:14;;;;;;;13.65;8.65;;;;;;;11.36;47.41;96718.44;5024557;28;20103;-74
2021/04/18 06:17:40;;;;;;;15.23;9.25;;;;;;;11.04;47.71;96684.09;5025260;28;20416;-74
2021/04/18 06:20:07;;;;;;;8.52;6.00;;;;;;;11.78;46.97;96749.31;5022766;28;20080;-72
2021/04/18 06:22:33;;;;;;;7.28;3.83;;;;;;;11.28;46.40;96686.28;5023020;28;20467;-74
2021/04/18 06:24:58;;;;;;;8.35;4.40;;;;;;;11.32;47.38;96704.53;5022932;28;20040;-72
2021/04/18 06:27:24;;;;;;;5.85;3.85;;;;;;;9.98;50.84;96668.22;5024303;28;20075;-71
2021/04/18 06:29:49;;;;;;;9.68;4.47;;;;;;;10.04;52.52;96750.53;5024820;28;20496;-70
2021/04/18 06:32:15;;;;;;;6.88;4.28;;;;;;;9.81;54.68;96763.66;5024210;28;20041;-72
2021/04/18 06:34:40;;;;;;;8.75;4.82;;;;;;;9.64;55.22;96766.91;5024508;28;20099;-71
2021/04/18 06:37:06;;;;;;;10.75;5.22;;;;;;;10.33;53.68;96763.63;5024049;28;20112;-72
2021/04/18 06:39:32;;;;;;;8.27;4.40;;;;;;;10.24;53.14;96760.34;5024902;28;20029;-72
2021/04/18 06:42:04;;;;;;;9.45;4.65;;;;;;;9.35;53.83;96717.88;5024124;28;20086;-72
2021/04/18 06:44:30;;;;;;;8.20;4.35;;;;;;;9.80;54.16;96762.03;5024461;28;20061;-70
2021/04/18 06:46:58;;;;;;;7.60;3.95;;;;;;;8.95;55.62;96654.84;5023509;28;20047;-72
2021/04/18 06:49:26;;;;;;;6.97;3.65;;;;;;;9.77;54.05;96740.66;5022946;28;20064;-71
2021/04/18 06:51:52;;;;;;;10.02;4.88;;;;;;;9.18;55.69;96635.50;5005607;28;20045;-70
2021/04/18 06:54:18;;;;;;;8.88;4.72;;;;;;;9.68;54.70;96726.28;5019339;28;20064;-71
2021/04/18 06:56:43;;;;;;;8.85;4.70;;;;;;;9.26;55.87;96714.56;5004565;28;20069;-72
2021/04/18 06:59:09;;;;;;;6.38;5.05;;;;;;;10.38;55.23;96776.34;5004362;28;20034;-72
2021/04/18 07:01:35;;;;;;;5.95;4.60;;;;;;;10.20;54.12;96770.56;5003163;28;20053;-72
2021/04/18 07:04:11;;;;;;;10.15;7.43;;;;;;;10.63;53.76;96778.25;5004390;28;20096;-72
2021/04/18 07:06:57;;;;;;;7.03;5.05;;;;;;;10.13;56.59;96778.75;5004180;28;20033;-71
2021/04/18 07:09:24;;;;;;;8.85;4.70;;;;;;;9.63;58.47;96790.22;5004587;28;20038;-69
2021/04/18 07:11:52;;;;;;;12.73;6.25;;;;;;;8.06;60.26;96490.03;5019107;28;20072;-72
2021/04/18 07:14:26;;;;;;;10.45;5.45;;;;;;;10.22;59.06;96772.97;5004659;28;20034;-71
2021/04/18 07:16:54;;;;;;;11.15;6.47;;;;;;;9.12;61.09;96659.06;5004152;28;20072;-70
2021/04/18 07:19:25;;;;;;;11.85;6.72;;;;;;;9.36;61.90;96711.16;5019175;28;20100;-72
2021/04/18 07:21:54;;;;;;;13.57;7.05;;;;;;;9.86;61.33;96724.59;5018725;28;20030;-70
2021/04/18 07:24:21;;;;;;;12.70;7.38;;;;;;;10.10;61.53;96779.50;5004354;28;20517;-72
2021/04/18 07:27:04;;;;;;;12.52;7.10;;;;;;;10.76;60.65;96776.03;5003334;28;20161;-72
2021/04/18 07:29:34;;;;;;;11.20;6.13;;;;;;;9.98;63.00;96734.63;5004443;28;20168;-71
2021/04/18 07:32:16;;;;;;;15.23;7.70;;;;;;;10.52;63.54;96771.81;5018528;28;20026;-70
2021/04/18 07:34:42;;;;;;;11.13;6.55;;;;;;;9.94;61.58;96654.34;5004253;28;20037;-71
2021/04/18 07:37:10;;;;;;;10.95;6.90;;;;;;;10.84;61.34;96783.25;5017972;28;20049;-70
2021/04/18 07:39:53;;;;;;;12.60;6.43;;;;;;;10.67;61.54;96773.56;5003945;28;20041;-71
2021/04/18 07:42:40;;;;;;;11.60;8.32;;;;;;;11.23;60.53;96772.59;5018198;28;20057;-72
2021/04/18 07:45:15;;;;;;;13.38;7.60;;;;;;;10.89;61.79;96773.81;5002823;28;20072;-70
2021/04/18 07:47:43;;;;;;;8.75;5.72;;;;;;;9.71;60.82;96609.41;5002159;28;20038;-70
2021/04/18 07:50:20;;;;;;;14.00;7.45;;;;;;;11.27;60.14;96765.13;5008068;28;20029;-72
2021/04/18 07:52:47;;;;;;;19.15;8.90;;;;;;;11.90;57.09;96765.69;5022902;28;20037;-71
2021/04/18 07:55:16;;;;;;;11.65;8.32;;;;;;;12.33;56.02;96767.53;5022246;28;20026;-72
2021/04/18 07:57:42;;;;;;;13.00;7.65;;;;;;;12.19;55.72;96743.28;5019814;28;20049;-72
2021/04/18 08:00:11;;;;;;;12.13;7.25;;;;;;;12.44;57.32;96760.06;5022680;28;20034;-71
2021/04/18 08:02:39;;;;;;;14.40;8.13;;;;;;;13.09;54.44;96769.09;5023187;28;20120;-70
2021/04/18 08:05:09;;;;;;;24.25;10.80;;;;;;;13.62;52.09;96764.41;5023268;28;20038;-68
2021/04/18 08:08:14;;;;;;;14.00;8.20;;;;;;;13.37;52.07;96763.56;5023669;28;20420;-70
2021/04/18 08:10:43;;;;;;;14.55;7.50;;;;;;;12.33;55.79;96781.41;5022106;28;20051;-70
2021/04/18 08:13:11;;;;;;;12.15;7.68;;;;;;;11.95;57.38;96780.00;5025934;28;20505;-71
2021/04/18 08:16:04;;;;;;;11.23;7.07;;;;;;;8.50;61.07;96372.50;5024870;28;20038;-69
2021/04/18 08:18:43;;;;;;;15.30;7.57;;;;;;;10.57;64.20;96776.19;5026135;28;20527;-70
2021/04/18 08:21:24;;;;;;;20.10;9.63;;;;;;;11.32;63.07;96759.19;5026789;28;20055;-71
2021/04/18 08:23:51;;;;;;;15.93;8.50;;;;;;;10.82;63.20;96707.22;5025608;28;20057;-70
2021/04/18 08:26:18;;;;;;;14.05;8.73;;;;;;;11.87;61.54;96750.59;5026596;28;20129;-71
2021/04/18 08:28:52;;;;;;;10.52;6.57;;;;;;;11.47;63.87;96755.38;5027230;28;20079;-70
2021/04/18 08:31:19;;;;;;;13.65;8.48;;;;;;;11.61;63.59;96744.41;5026574;28;20240;-71
2021/04/18 08:33:50;;;;;;;13.18;8.20;;;;;;;10.97;64.27;96692.34;5025102;28;20585;-71
2021/04/18 08:36:23;;;;;;;14.68;8.00;;;;;;;11.60;64.32;96753.94;5026564;28;20045;-71
2021/04/18 08:39:08;;;;;;;14.75;9.18;;;;;;;11.83;64.57;96744.22;5026892;28;20033;-71
2021/04/18 08:41:37;;;;;;;16.48;7.53;;;;;;;11.23;66.12;96753.97;5017625;28;20060;-70
2021/04/18 08:44:29;;;;;;;15.68;8.60;;;;;;;11.06;67.79;96735.22;5026382;28;20534;-70
2021/04/18 08:47:04;;;;;;;12.88;7.88;;;;;;;11.19;67.51;96755.13;5026695;28;20127;-71
2021/04/18 08:49:37;;;;;;;15.32;8.95;;;;;;;11.50;66.87;96749.06;5026479;28;20111;-72
2021/04/18 08:52:14;;;;;;;21.10;8.90;;;;;;;11.76;64.87;96757.25;5020971;28;20069;-72
2021/04/18 08:54:42;;;;;;;15.15;11.00;;;;;;;11.85;63.87;96672.50;5007000;28;20033;-70
2021/04/18 08:57:11;;;;;;;17.23;10.23;;;;;;;12.35;63.01;96756.84;5005745;28;20532;-70
2021/04/18 08:59:38;;;;;;;16.27;8.52;;;;;;;11.17;67.84;96735.31;5006135;28;20038;-67
2021/04/18 09:02:06;;;;;;;11.68;8.63;;;;;;;11.50;66.49;96719.38;5005979;28;20034;-68
2021/04/18 09:04:39;;;;;;;21.65;13.48;;;;;;;12.53;63.68;96721.63;5021027;28;20045;-71
2021/04/18 09:07:06;;;;;;;18.25;11.85;;;;;;;13.26;60.44;96728.59;5017800;28;20034;-71
2021/04/18 09:09:32;;;;;;;20.77;13.35;;;;;;;13.66;58.80;96726.25;5006823;28;20038;-68
2021/04/18 09:11:58;;;;;;;21.77;11.95;;;;;;;14.23;56.68;96715.00;5005421;28;20034;-70
2021/04/18 09:14:32;;;;;;;32.55;15.40;;;;;;;11.97;56.67;96502.84;5006297;28;20026;-67
2021/04/18 09:17:16;;;;;;;10.50;7.00;;;;;;;13.17;59.23;96711.50;5020745;28;20034;-69
2021/04/18 09:19:42;;;;;;;;;;;;;;;13.73;58.55;96713.50;5007091;28;20187;-67
2021/04/18 09:22:12;;;;;;;17.88;10.60;;;;;;;13.72;59.09;96709.16;5006041;28;19995;-68
2021/04/18 09:24:52;;;;;;;12.30;9.70;;;;;;;14.47;56.17;96712.19;5006073;28;20580;-67
2021/04/18 09:27:19;;;;;;;12.52;8.68;;;;;;;13.22;59.72;96706.34;5006158;28;20041;-69
2021/04/18 09:29:55;;;;;;;15.75;9.63;;;;;;;12.40;60.79;96608.47;5021091;28;20041;-68
2021/04/18 09:32:25;;;;;;;15.73;8.65;;;;;;;14.08;58.26;96708.69;5005913;28;20513;-68
2021/04/18 09:34:52;;;;;;;14.02;9.25;;;;;;;14.32;56.27;96665.28;5004648;28;20029;-69
2021/04/18 09:37:21;;;;;;;13.45;8.38;;;;;;;14.27;56.37;96715.84;5005853;28;20034;-69
2021/04/18 09:39:51;;;;;;;11.00;7.55;;;;;;;13.84;57.39;96703.16;5006305;28;20025;-67
2021/04/18 09:42:18;;;;;;;23.23;10.85;;;;;;;13.21;60.07;96715.88;5005971;28;20094;-68
2021/04/18 09:44:45;;;;;;;12.20;8.48;;;;;;;13.14;58.13;96620.50;5005736;28;20081;-69
2021/04/18 09:47:24;;;;;;;15.32;9.50;;;;;;;14.19;57.00;96711.47;5020452;28;20050;-69
2021/04/18 09:49:59;;;;;;;12.98;7.65;;;;;;;15.13;54.24;96718.66;5021719;28;20496;-70
2021/04/18 09:52:34;;;;;;;14.32;9.63;;;;;;;15.16;53.51;96723.41;5025180;28;20037;-70
2021/04/18 09:55:22;;;;;;;12.07;7.90;;;;;;;15.27;53.25;96735.28;5023887;28;20041;-70
2021/04/18 09:57:53;;;;;;;16.08;9.60;;;;;;;14.92;54.98;96736.28;5024612;28;20553;-70
2021/04/18 10:00:20;;;;;;;16.88;9.50;;;;;;;14.03;56.59;96741.72;5023417;28;20049;-70
2021/04/18 10:03:14;;;;;;;12.45;8.10;;;;;;;14.33;55.61;96736.53;5023544;28;20025;-69
2021/04/18 10:05:42;;;;;;;11.57;8.40;;;;;;;13.81;57.86;96742.94;5022848;28;20044;-69
2021/04/18 10:08:26;;;;;;;12.77;9.30;;;;;;;13.39;57.74;96624.88;5025273;28;20029;-69
2021/04/18 10:10:55;;;;;;;14.68;9.68;;;;;;;14.43;55.87;96719.00;5024832;28;20091;-70
2021/04/18 10:13:39;;;;;;;17.95;9.82;;;;;;;14.07;57.55;96739.75;5023623;28;20032;-69
2021/04/18 10:16:06;;;;;;;17.27;10.43;;;;;;;13.83;59.02;96729.41;5022467;28;20038;-69
2021/04/18 10:18:33;;;;;;;10.45;8.18;;;;;;;13.83;58.73;96735.00;5040344;28;20037;-69
2021/04/18 10:21:18;;;;;;;17.73;9.07;;;;;;;13.38;61.45;96737.38;5022951;28;20401;-69
2021/04/18 10:23:44;;;;;;;13.80;8.80;;;;;;;13.32;61.86;96744.53;5023081;28;20043;-68
2021/04/18 10:26:09;;;;;;;15.63;9.02;;;;;;;12.62;64.29;96737.91;5022418;28;20512;-68
2021/04/18 10:28:35;;;;;;;19.63;9.27;;;;;;;13.23;62.54;96744.09;5023096;28;20072;-69
2021/04/18 10:31:00;;;;;;;15.23;9.27;;;;;;;13.38;61.75;96759.63;5022615;28;20049;-70
2021/04/18 10:33:26;;;;;;;12.23;7.70;;;;;;;13.16;62.72;96740.50;5024266;28;20033;-69
2021/04/18 10:35:56;;;;;;;18.17;9.20;;;;;;;13.00;63.68;96740.88;5023323;28;20059;-68
2021/04/18 10:38:22;;;;;;;15.30;8.85;;;;;;;13.15;63.92;96739.69;5023568;28;20543;-69
2021/04/18 10:40:48;;;;;;;14.98;9.52;;;;;;;12.90;62.64;96674.88;5024164;28;20092;-70
2021/04/18 10:43:13;;;;;;;14.55;10.75;;;;;;;12.75;63.27;96698.28;5024509;28;20033;-68
2021/04/18 10:45:39;;;;;;;14.80;9.25;;;;;;;12.43;65.13;96713.22;5023736;28;20138;-67
2021/04/18 10:48:06;;;;;;;19.52;10.80;;;;;;;12.46;64.84;96707.69;5024345;28;20040;-69
2021/04/18 10:50:32;;;;;;;16.38;10.15;;;;;;;12.89;64.98;96758.66;5023620;28;20060;-69
2021/04/18 10:52:57;;;;;;;16.30;9.82;;;;;;;12.48;66.74;96755.31;5023186;28;20516;-69
2021/04/18 10:55:23;;;;;;;15.50;10.60;;;;;;;12.35;67.76;96726.28;5023718;28;20037;-68
2021/04/18 10:57:48;;;;;;;24.20;12.32;;;;;;;12.72;65.92;96728.84;5024721;28;20061;-69
2021/04/18 11:00:14;;;;;;;12.95;8.52;;;;;;;10.69;68.89;96566.22;5022693;28;20459;-69
2021/04/18 11:02:40;;;;;;;19.27;11.70;;;;;;;12.22;70.09;96741.69;5024107;28;20057;-69
2021/04/18 11:05:06;;;;;;;20.40;13.57;;;;;;;9.72;65.48;96151.94;5022089;28;20048;-68
2021/04/18 11:07:32;;;;;;;21.95;12.30;;;;;;;13.83;62.50;96718.28;5023589;28;20072;-70
2021/04/18 11:09:58;;;;;;;13.70;9.38;;;;;;;12.33;60.59;96481.47;5024443;28;20029;-70
2021/04/18 11:12:23;;;;;;;17.83;9.45;;;;;;;14.41;58.75;96710.22;5022235;28;20412;-71
2021/04/18 11:14:49;;;;;;;33.47;17.05;;;;;;;14.47;57.73;96669.59;5024028;28;20030;-72
2021/04/18 11:17:14;;;;;;;18.92;11.13;;;;;;;14.54;59.15;96731.66;5021860;28;20124;-72
2021/04/18 11:19:40;;;;;;;14.45;9.88;;;;;;;13.79;58.93;96633.97;5023753;28;20027;-71
2021/04/18 11:22:06;;;;;;;16.80;10.80;;;;;;;13.81;58.42;96606.53;5023366;28;20041;-70
2021/04/18 11:24:31;;;;;;;16.35;9.15;;;;;;;14.75;57.19;96725.22;5023522;28;20026;-70
2021/04/18 11:26:57;;;;;;;18.65;10.45;;;;;;;14.92;57.13;96733.50;5023830;28;20051;-73
2021/04/18 11:29:22;;;;;;;16.13;9.90;;;;;;;15.04;56.37;96729.47;5022240;28;20025;-73
2021/04/18 11:31:48;;;;;;;16.70;10.82;;;;;;;15.26;55.94;96739.28;5021564;28;20469;-73
2021/04/18 11:34:13;;;;;;;15.43;10.55;;;;;;;14.70;55.57;96664.31;5021882;28;20139;-71